createdAt,value
2023-05-19T00:00:21.716Z,16.41
2023-05-19T00:02:49.680Z,16.66
2023-05-19T00:05:18.524Z,16.89
2023-05-19T00:07:46.330Z,17.00
2023-05-19T00:10:14.588Z,16.70
2023-05-19T00:12:42.247Z,17.34
2023-05-19T00:15:10.588Z,16.06
2023-05-19T00:17:42.419Z,16.80
2023-05-19T00:20:11.998Z,16.88
2023-05-19T00:22:40.314Z,17.09
2023-05-19T00:25:08.339Z,17.02
2023-05-19T00:27:36.019Z,16.30
2023-05-19T00:30:03.637Z,15.59
2023-05-19T00:32:31.314Z,14.97
2023-05-19T00:35:00.434Z,15.85
2023-05-19T00:37:28.105Z,16.27
2023-05-19T00:39:55.761Z,16.99
2023-05-19T00:42:24.189Z,16.39
2023-05-19T00:44:51.898Z,15.98
2023-05-19T00:47:22.074Z,17.47
2023-05-19T00:49:51.681Z,17.14
2023-05-19T00:52:20.713Z,16.95
2023-05-19T00:54:48.451Z,16.43
2023-05-19T00:57:16.387Z,16.35
2023-05-19T00:59:44.020Z,16.03
2023-05-19T01:02:11.869Z,16.77
2023-05-19T01:04:41.842Z,17.33
2023-05-19T01:07:10.432Z,16.11
2023-05-19T01:09:39.512Z,15.23
2023-05-19T01:12:09.437Z,16.02
2023-05-19T01:14:37.089Z,15.75
2023-05-19T01:17:05.721Z,15.80
2023-05-19T01:19:38.830Z,15.70
2023-05-19T01:22:14.287Z,16.51
2023-05-19T01:25:06.963Z,16.50
2023-05-19T01:27:42.948Z,16.25
2023-05-19T01:30:22.278Z,16.56
2023-05-19T01:32:50.163Z,16.91
2023-05-19T01:35:17.868Z,17.02
2023-05-19T01:37:47.117Z,16.77
2023-05-19T01:40:16.570Z,16.63
2023-05-19T01:42:45.497Z,15.70
2023-05-19T01:45:13.192Z,16.42
2023-05-19T01:47:44.130Z,16.83
2023-05-19T01:50:12.099Z,16.93
2023-05-19T01:52:39.767Z,16.66
2023-05-19T01:55:11.427Z,16.13
2023-05-19T01:57:42.160Z,16.11
2023-05-19T02:00:11.661Z,15.71
2023-05-19T02:02:45.007Z,15.91
2023-05-19T02:05:15.194Z,16.13
2023-05-19T02:07:43.881Z,15.65
2023-05-19T02:10:12.087Z,15.14
2023-05-19T02:12:40.493Z,16.42
2023-05-19T02:15:10.666Z,16.07
2023-05-19T02:17:41.353Z,16.02
2023-05-19T02:20:12.508Z,16.79
2023-05-19T02:22:40.460Z,16.86
2023-05-19T02:25:08.466Z,16.52
2023-05-19T02:27:37.866Z,16.48
2023-05-19T02:30:05.848Z,16.29
2023-05-19T02:32:34.339Z,15.33
2023-05-19T02:35:02.130Z,16.38
2023-05-19T02:37:32.507Z,16.21
2023-05-19T02:40:00.164Z,16.24
2023-05-19T02:42:27.858Z,16.20
2023-05-19T02:44:55.699Z,16.14
2023-05-19T02:47:23.395Z,15.84
2023-05-19T02:49:51.144Z,15.49
2023-05-19T02:52:18.808Z,15.69
2023-05-19T02:54:48.289Z,15.08
2023-05-19T02:57:15.992Z,16.04
2023-05-19T02:59:43.879Z,16.36
2023-05-19T03:02:11.798Z,16.80
2023-05-19T03:04:41.785Z,16.74
2023-05-19T03:07:10.952Z,16.59
2023-05-19T03:09:38.769Z,16.88
2023-05-19T03:12:08.280Z,16.20
2023-05-19T03:14:37.713Z,15.88
2023-05-19T03:17:07.556Z,16.49
2023-05-19T03:19:35.341Z,16.02
2023-05-19T03:22:02.973Z,16.18
2023-05-19T03:24:30.814Z,15.66
2023-05-19T03:26:58.683Z,15.96
2023-05-19T03:29:27.738Z,15.93
2023-05-19T03:31:55.428Z,15.77
2023-05-19T03:34:23.456Z,16.34
2023-05-19T03:36:51.717Z,16.31
2023-05-19T03:39:21.276Z,16.59
2023-05-19T03:41:49.794Z,16.65
2023-05-19T03:44:17.472Z,15.88
2023-05-19T03:46:47.370Z,15.78
2023-05-19T03:49:44.260Z,15.74
2023-05-19T03:52:50.097Z,16.78
2023-05-19T03:55:30.574Z,16.70
2023-05-19T03:57:58.319Z,16.49
2023-05-19T04:00:26.179Z,16.34
2023-05-19T04:02:55.283Z,15.64
2023-05-19T04:05:23.007Z,15.95
2023-05-19T04:07:51.022Z,17.23
2023-05-19T04:10:18.888Z,16.57
2023-05-19T04:12:48.007Z,17.39
2023-05-19T04:15:16.923Z,16.94
2023-05-19T04:17:44.641Z,16.70
2023-05-19T04:20:14.328Z,15.79
2023-05-19T04:22:41.992Z,16.97
2023-05-19T04:25:10.191Z,17.71
2023-05-19T04:27:39.225Z,17.36
2023-05-19T04:30:07.989Z,17.76
2023-05-19T04:32:37.362Z,16.24
2023-05-19T04:35:06.863Z,15.80
2023-05-19T04:37:38.330Z,17.09
2023-05-19T04:40:10.879Z,16.24
2023-05-19T04:42:41.259Z,15.79
2023-05-19T04:45:12.373Z,17.33
2023-05-19T04:47:42.788Z,16.99
2023-05-19T04:50:12.019Z,15.75
2023-05-19T04:52:42.836Z,17.49
2023-05-19T04:55:13.186Z,17.82
2023-05-19T04:57:41.704Z,17.05
2023-05-19T05:00:13.304Z,17.93
2023-05-19T05:02:57.536Z,18.64
2023-05-19T05:05:26.807Z,18.84
2023-05-19T05:07:56.245Z,17.07
2023-05-19T05:10:28.529Z,16.86
2023-05-19T05:12:56.520Z,17.68
2023-05-19T05:15:25.047Z,17.21
2023-05-19T05:17:53.418Z,18.11
2023-05-19T05:20:22.564Z,17.05
2023-05-19T05:22:50.529Z,18.01
2023-05-19T05:25:20.987Z,17.36
2023-05-19T05:27:49.793Z,17.20
2023-05-19T05:30:17.587Z,16.88
2023-05-19T05:32:48.130Z,16.59
2023-05-19T05:35:30.801Z,18.31
2023-05-19T05:37:59.383Z,17.16
2023-05-19T05:40:28.620Z,18.17
2023-05-19T05:42:58.869Z,17.89
2023-05-19T05:45:29.661Z,18.35
2023-05-19T05:47:58.728Z,18.71
2023-05-19T05:50:28.652Z,18.94
2023-05-19T05:52:56.930Z,18.47
2023-05-19T05:55:29.856Z,17.82
2023-05-19T05:58:02.067Z,18.17
2023-05-19T06:00:29.917Z,17.69
2023-05-19T06:02:59.132Z,19.04
2023-05-19T06:05:27.384Z,19.96
2023-05-19T06:07:55.903Z,20.58
2023-05-19T06:10:26.986Z,20.13
2023-05-19T06:12:57.455Z,18.55
2023-05-19T06:15:26.488Z,20.07
2023-05-19T06:18:11.850Z,19.16
2023-05-19T06:20:40.845Z,19.73
2023-05-19T06:23:09.362Z,19.63
2023-05-19T06:25:37.102Z,19.18
2023-05-19T06:28:07.788Z,19.81
2023-05-19T06:30:36.691Z,19.26
2023-05-19T06:33:17.988Z,18.71
2023-05-19T06:35:45.662Z,19.74
2023-05-19T06:38:13.598Z,20.52
2023-05-19T06:40:41.535Z,20.82
2023-05-19T06:43:10.757Z,20.82
2023-05-19T06:45:58.237Z,20.43
2023-05-19T06:48:29.593Z,20.03
2023-05-19T06:50:57.465Z,19.06
2023-05-19T06:53:25.846Z,19.27
2023-05-19T06:56:00.051Z,19.61
2023-05-19T06:58:33.312Z,19.40
2023-05-19T07:01:05.204Z,21.89
2023-05-19T07:03:42.377Z,22.79
2023-05-19T07:06:11.767Z,20.97
2023-05-19T07:08:39.513Z,20.20
2023-05-19T07:11:08.796Z,21.26
2023-05-19T07:13:37.901Z,22.13
2023-05-19T07:16:05.904Z,21.85
2023-05-19T07:18:34.318Z,20.84
2023-05-19T07:21:02.044Z,22.00
2023-05-19T07:23:32.434Z,22.95
2023-05-19T07:26:00.233Z,21.70
2023-05-19T07:28:27.939Z,23.05
2023-05-19T07:30:57.010Z,25.58
2023-05-19T07:33:24.720Z,24.05
2023-05-19T07:35:52.495Z,25.17
2023-05-19T07:38:20.152Z,27.53
2023-05-19T07:40:47.833Z,25.17
2023-05-19T07:43:15.584Z,25.38
2023-05-19T07:45:43.312Z,23.36
2023-05-19T07:48:12.558Z,24.04
2023-05-19T07:50:40.845Z,26.38
2023-05-19T07:53:09.605Z,25.91
2023-05-19T07:55:37.315Z,25.06
2023-05-19T07:58:04.966Z,24.69
2023-05-19T08:00:33.036Z,24.26
2023-05-19T08:03:01.812Z,27.18
2023-05-19T08:05:30.943Z,25.38
2023-05-19T08:07:58.781Z,23.62
2023-05-19T08:10:26.461Z,25.63
2023-05-19T08:12:54.370Z,24.39
2023-05-19T08:15:22.054Z,26.01
2023-05-19T08:17:50.024Z,26.02
2023-05-19T08:20:17.935Z,25.86
2023-05-19T08:22:46.943Z,27.16
2023-05-19T08:25:14.968Z,26.98
2023-05-19T08:27:42.649Z,26.81
2023-05-19T08:30:10.932Z,27.16
2023-05-19T08:32:38.695Z,26.03
2023-05-19T08:35:06.637Z,27.36
2023-05-19T08:37:37.037Z,28.06
2023-05-19T08:40:07.122Z,25.84
2023-05-19T08:42:34.856Z,24.78
2023-05-19T08:45:03.212Z,26.55
2023-05-19T08:47:31.082Z,27.66
2023-05-19T08:50:00.196Z,26.31
2023-05-19T08:52:29.099Z,27.14
2023-05-19T08:55:03.633Z,26.70
2023-05-19T08:57:34.130Z,26.46
2023-05-19T09:00:01.798Z,26.27
2023-05-19T09:02:29.526Z,28.22
2023-05-19T09:04:57.609Z,26.13
2023-05-19T09:07:26.779Z,28.07
2023-05-19T09:09:54.976Z,27.92
2023-05-19T09:12:22.654Z,28.56
2023-05-19T09:14:51.884Z,26.43
2023-05-19T09:17:19.853Z,28.74
2023-05-19T09:19:49.568Z,28.33
2023-05-19T09:22:19.112Z,25.63
2023-05-19T09:24:46.761Z,26.63
2023-05-19T09:27:15.508Z,25.12
2023-05-19T09:29:43.549Z,27.62
2023-05-19T09:32:12.642Z,27.67
2023-05-19T09:34:41.652Z,27.29
2023-05-19T09:37:09.436Z,27.77
2023-05-19T09:39:37.070Z,26.06
2023-05-19T09:42:05.601Z,27.51
2023-05-19T09:44:33.742Z,27.98
2023-05-19T09:47:02.175Z,27.46
2023-05-19T09:49:32.683Z,27.62
2023-05-19T09:52:00.776Z,27.95
2023-05-19T09:54:29.679Z,28.62
2023-05-19T09:57:00.873Z,27.90
2023-05-19T09:59:32.336Z,26.81
2023-05-19T10:02:02.200Z,25.37
2023-05-19T10:04:31.622Z,25.59
2023-05-19T10:07:00.394Z,27.78
2023-05-19T10:09:28.722Z,26.09
2023-05-19T10:11:56.695Z,26.55
2023-05-19T10:14:24.879Z,27.03
2023-05-19T10:16:52.892Z,26.30
2023-05-19T10:19:21.875Z,27.56
2023-05-19T10:21:51.435Z,28.70
2023-05-19T10:24:19.432Z,27.67
2023-05-19T10:26:48.308Z,29.23
2023-05-19T10:29:16.807Z,26.93
2023-05-19T10:31:46.512Z,27.86
2023-05-19T10:34:22.389Z,31.12
2023-05-19T10:36:53.972Z,27.95
2023-05-19T10:39:26.306Z,28.16
2023-05-19T10:41:55.493Z,27.39
2023-05-19T10:44:26.771Z,28.32
2023-05-19T10:46:56.742Z,29.31
2023-05-19T10:49:24.913Z,28.74
2023-05-19T10:51:55.155Z,27.91
2023-05-19T10:54:38.996Z,29.31
2023-05-19T10:57:07.063Z,28.46
2023-05-19T10:59:40.969Z,29.49
2023-05-19T11:02:10.954Z,29.88
2023-05-19T11:04:40.512Z,27.96
2023-05-19T11:07:11.345Z,26.31
2023-05-19T11:09:41.454Z,30.00
2023-05-19T11:12:10.562Z,28.75
2023-05-19T11:14:39.166Z,28.08
2023-05-19T11:17:07.897Z,28.77
2023-05-19T11:19:36.167Z,28.39
2023-05-19T11:22:11.284Z,27.63
2023-05-19T11:24:39.982Z,27.94
2023-05-19T11:27:24.260Z,30.07
2023-05-19T11:29:52.281Z,27.54
2023-05-19T11:32:21.412Z,28.35
2023-05-19T11:34:49.422Z,28.61
2023-05-19T11:37:20.568Z,26.99
2023-05-19T11:39:48.558Z,28.12
2023-05-19T11:42:16.376Z,30.36
2023-05-19T11:44:46.152Z,27.30
2023-05-19T11:47:14.035Z,29.68
2023-05-19T11:49:44.045Z,29.18
2023-05-19T11:52:11.716Z,27.09
2023-05-19T11:54:41.946Z,30.83
2023-05-19T11:57:09.757Z,30.13
2023-05-19T11:59:37.822Z,29.66
2023-05-19T12:02:16.818Z,31.03
2023-05-19T12:04:44.646Z,31.76
2023-05-19T12:07:12.411Z,31.13
2023-05-19T12:09:41.613Z,34.06
2023-05-19T12:12:09.524Z,32.15
2023-05-19T12:14:37.290Z,30.36
2023-05-19T12:17:11.287Z,30.43
2023-05-19T12:19:39.554Z,29.79
2023-05-19T12:22:07.571Z,31.18
2023-05-19T12:24:35.362Z,28.54
2023-05-19T12:27:10.936Z,28.47
2023-05-19T12:29:39.520Z,30.58
2023-05-19T12:32:08.009Z,29.90
2023-05-19T12:34:36.553Z,29.08
2023-05-19T12:37:04.638Z,29.91
2023-05-19T12:39:32.398Z,29.17
2023-05-19T12:42:03.808Z,31.20
2023-05-19T12:44:32.910Z,35.76
2023-05-19T12:47:01.789Z,35.62
2023-05-19T12:49:29.480Z,33.45
2023-05-19T12:51:57.168Z,32.12
2023-05-19T12:54:25.024Z,30.61
2023-05-19T12:56:52.822Z,29.86
2023-05-19T12:59:30.974Z,30.51
2023-05-19T13:02:10.234Z,30.19
2023-05-19T13:04:38.613Z,29.16
2023-05-19T13:07:09.130Z,30.76
2023-05-19T13:09:36.810Z,30.55
2023-05-19T13:12:06.565Z,31.87
2023-05-19T13:14:34.268Z,34.65
2023-05-19T13:17:02.161Z,34.21
2023-05-19T13:19:31.415Z,33.10
2023-05-19T13:21:59.172Z,34.89
2023-05-19T13:24:26.912Z,31.33
2023-05-19T13:26:55.909Z,30.95
2023-05-19T13:29:23.918Z,29.86
2023-05-19T13:31:51.728Z,29.73
2023-05-19T13:34:19.699Z,31.09
2023-05-19T13:36:49.989Z,30.06
2023-05-19T13:39:17.774Z,32.16
2023-05-19T13:41:45.559Z,31.85
2023-05-19T13:44:13.224Z,33.17
2023-05-19T13:46:45.670Z,32.27
2023-05-19T13:49:14.558Z,31.68
2023-05-19T13:51:45.009Z,31.14
2023-05-19T13:54:14.026Z,32.44
2023-05-19T13:56:43.092Z,33.45
2023-05-19T13:59:10.843Z,31.73
2023-05-19T14:01:38.578Z,34.91
2023-05-19T14:04:07.113Z,33.82
2023-05-19T14:06:34.887Z,31.24
2023-05-19T14:09:02.613Z,33.26
2023-05-19T14:11:31.622Z,34.34
2023-05-19T14:13:59.330Z,34.55
2023-05-19T14:16:28.697Z,31.70
2023-05-19T14:18:56.476Z,33.93
2023-05-19T14:21:24.214Z,34.26
2023-05-19T14:23:51.904Z,32.30
2023-05-19T14:26:19.721Z,33.86
2023-05-19T14:28:48.758Z,36.00
2023-05-19T14:31:16.471Z,33.43
2023-05-19T14:33:44.260Z,34.25
2023-05-19T14:36:12.017Z,35.47
2023-05-19T14:38:39.764Z,32.61
2023-05-19T14:41:09.995Z,33.27
2023-05-19T14:43:38.337Z,30.95
2023-05-19T14:46:07.501Z,32.79
2023-05-19T14:48:35.165Z,34.11
2023-05-19T14:51:02.824Z,35.34
2023-05-19T14:53:30.487Z,35.48
2023-05-19T14:55:58.175Z,33.33
2023-05-19T14:58:28.320Z,35.30
2023-05-19T15:00:58.404Z,34.54
2023-05-19T15:03:27.448Z,33.55
2023-05-19T15:05:55.212Z,32.74
2023-05-19T15:08:23.458Z,33.98
2023-05-19T15:10:51.415Z,30.65
2023-05-19T15:13:21.364Z,30.80
2023-05-19T15:15:49.065Z,31.58
2023-05-19T15:18:18.580Z,31.91
2023-05-19T15:20:47.663Z,31.52
2023-05-19T15:23:15.404Z,34.79
2023-05-19T15:25:43.056Z,34.60
2023-05-19T15:28:10.748Z,33.41
2023-05-19T15:30:38.639Z,32.62
2023-05-19T15:33:06.452Z,31.92
2023-05-19T15:35:34.123Z,29.82
2023-05-19T15:38:06.258Z,28.63
2023-05-19T15:40:34.430Z,31.22
2023-05-19T15:43:02.317Z,31.03
2023-05-19T15:45:30.181Z,28.70
2023-05-19T15:47:57.929Z,30.29
2023-05-19T15:50:26.752Z,29.07
2023-05-19T15:52:54.436Z,28.80
2023-05-19T15:55:24.717Z,29.53
2023-05-19T15:57:52.420Z,28.88
2023-05-19T16:00:20.420Z,30.66
2023-05-19T16:02:48.325Z,29.37
2023-05-19T16:05:16.688Z,27.83
2023-05-19T16:07:44.433Z,29.79
2023-05-19T16:10:12.126Z,30.24
2023-05-19T16:12:41.178Z,28.71
2023-05-19T16:15:12.017Z,30.42
2023-05-19T16:17:40.857Z,30.32
2023-05-19T16:20:09.227Z,28.33
2023-05-19T16:22:36.939Z,29.58
2023-05-19T16:25:04.944Z,28.75
2023-05-19T16:27:32.632Z,27.14
2023-05-19T16:30:02.548Z,29.01
2023-05-19T16:32:30.385Z,28.36
2023-05-19T16:34:58.093Z,29.42
2023-05-19T16:37:25.855Z,28.98
2023-05-19T16:39:53.521Z,29.00
2023-05-19T16:42:21.186Z,28.11
2023-05-19T16:44:48.954Z,29.43
2023-05-19T16:47:17.882Z,30.29
2023-05-19T16:49:45.555Z,30.15
2023-05-19T16:52:13.239Z,30.16
2023-05-19T16:54:40.861Z,30.71
2023-05-19T16:57:08.549Z,30.62
2023-05-19T16:59:36.246Z,29.09
2023-05-19T17:02:04.043Z,29.82
2023-05-19T17:04:33.147Z,30.06
2023-05-19T17:07:00.801Z,31.86
2023-05-19T17:09:28.483Z,28.58
2023-05-19T17:11:56.450Z,29.36
2023-05-19T17:14:24.108Z,25.92
2023-05-19T17:16:52.444Z,29.21
2023-05-19T17:19:20.191Z,27.79
2023-05-19T17:21:49.276Z,29.52
2023-05-19T17:24:16.957Z,30.03
2023-05-19T17:26:44.575Z,30.01
2023-05-19T17:29:14.282Z,28.49
2023-05-19T17:31:42.240Z,29.29
2023-05-19T17:34:09.906Z,30.14
2023-05-19T17:36:37.638Z,28.80
2023-05-19T17:39:06.669Z,29.26
2023-05-19T17:41:34.346Z,30.66
2023-05-19T17:44:01.961Z,30.09
2023-05-19T17:46:34.490Z,27.04
2023-05-19T17:49:02.260Z,28.13
2023-05-19T17:51:30.277Z,27.93
2023-05-19T17:53:58.250Z,28.10
2023-05-19T17:56:27.389Z,28.19
2023-05-19T17:58:55.370Z,29.43
2023-05-19T18:01:27.111Z,26.96
2023-05-19T18:03:55.253Z,26.29
2023-05-19T18:06:23.552Z,26.49
2023-05-19T18:08:51.789Z,27.32
2023-05-19T18:11:19.754Z,27.58
2023-05-19T18:13:48.763Z,26.01
2023-05-19T18:16:16.715Z,26.14
2023-05-19T18:18:46.996Z,27.53
2023-05-19T18:21:17.805Z,26.16
2023-05-19T18:23:45.647Z,26.93
2023-05-19T18:26:14.171Z,26.82
2023-05-19T18:28:41.852Z,25.90
2023-05-19T18:31:15.716Z,25.79
2023-05-19T18:33:43.523Z,25.81
2023-05-19T18:36:11.172Z,27.15
2023-05-19T18:38:39.001Z,27.33
2023-05-19T18:41:07.570Z,27.70
2023-05-19T18:43:35.375Z,27.91
2023-05-19T18:46:03.070Z,26.52
2023-05-19T18:48:34.153Z,24.20
2023-05-19T18:51:03.766Z,25.24
2023-05-19T18:53:32.195Z,24.97
2023-05-19T18:55:59.833Z,25.84
2023-05-19T18:58:27.435Z,26.18
2023-05-19T19:00:55.603Z,25.07
2023-05-19T19:03:23.531Z,23.96
2023-05-19T19:05:56.109Z,24.90
2023-05-19T19:08:23.814Z,23.45
2023-05-19T19:10:51.768Z,25.52
2023-05-19T19:13:19.554Z,25.56
2023-05-19T19:15:47.208Z,25.50
2023-05-19T19:18:14.876Z,24.90
2023-05-19T19:20:42.571Z,26.51
2023-05-19T19:23:12.128Z,26.72
2023-05-19T19:25:43.035Z,26.91
2023-05-19T19:28:11.279Z,26.34
2023-05-19T19:30:38.969Z,25.66
2023-05-19T19:33:07.049Z,26.31
2023-05-19T19:35:34.934Z,25.21
2023-05-19T19:38:05.679Z,24.81
2023-05-19T19:40:35.038Z,25.64
2023-05-19T19:43:02.994Z,25.27
2023-05-19T19:45:30.815Z,24.39
2023-05-19T19:47:58.509Z,24.97
2023-05-19T19:50:26.163Z,26.94
2023-05-19T19:52:54.105Z,27.18
2023-05-19T19:55:21.877Z,25.71
2023-05-19T19:57:51.295Z,26.54
2023-05-19T20:00:19.617Z,26.70
2023-05-19T20:03:03.553Z,24.75
2023-05-19T20:05:32.457Z,26.01
2023-05-19T20:08:00.262Z,25.62
2023-05-19T20:10:27.925Z,25.95
2023-05-19T20:12:58.792Z,25.40
2023-05-19T20:15:26.699Z,25.11
2023-05-19T20:17:54.449Z,25.64
2023-05-19T20:20:22.250Z,25.65
2023-05-19T20:22:49.994Z,24.67
2023-05-19T20:25:17.657Z,25.51
2023-05-19T20:27:48.653Z,25.37
2023-05-19T20:30:17.720Z,25.82
2023-05-19T20:32:47.769Z,25.51
2023-05-19T20:35:15.466Z,26.28
2023-05-19T20:37:43.137Z,24.51
2023-05-19T20:40:13.637Z,25.81
2023-05-19T20:42:41.552Z,24.55
2023-05-19T20:45:09.457Z,25.19
2023-05-19T20:47:38.656Z,26.06
2023-05-19T20:50:06.889Z,25.94
2023-05-19T20:52:34.570Z,25.76
2023-05-19T20:55:02.269Z,23.86
2023-05-19T20:57:30.002Z,25.39
2023-05-19T20:59:57.666Z,25.65
2023-05-19T21:02:25.396Z,24.37
2023-05-19T21:04:54.458Z,25.09
2023-05-19T21:07:22.469Z,25.89
2023-05-19T21:09:51.535Z,24.87
2023-05-19T21:12:23.585Z,24.17
2023-05-19T21:14:51.254Z,23.08
2023-05-19T21:17:21.125Z,23.85
2023-05-19T21:19:50.570Z,24.51
2023-05-19T21:22:19.892Z,23.22
2023-05-19T21:24:47.571Z,24.11
2023-05-19T21:27:15.254Z,24.15
2023-05-19T21:29:46.014Z,23.97
2023-05-19T21:32:14.042Z,24.25
2023-05-19T21:34:41.718Z,24.20
2023-05-19T21:37:09.542Z,23.70
2023-05-19T21:39:38.661Z,24.63
2023-05-19T21:42:06.807Z,24.51
2023-05-19T21:44:34.461Z,25.07
2023-05-19T21:47:02.179Z,23.67
2023-05-19T21:49:29.893Z,23.91
2023-05-19T21:51:57.566Z,23.88
2023-05-19T21:54:25.236Z,23.45
2023-05-19T21:56:54.318Z,23.67
2023-05-19T21:59:23.212Z,23.96
2023-05-19T22:01:51.054Z,23.18
2023-05-19T22:04:18.969Z,23.04
2023-05-19T22:06:46.682Z,23.42
2023-05-19T22:09:14.371Z,22.93
2023-05-19T22:11:42.015Z,22.29
2023-05-19T22:14:11.119Z,23.48
2023-05-19T22:16:38.853Z,23.61
2023-05-19T22:19:06.667Z,23.48
2023-05-19T22:21:34.367Z,23.94
2023-05-19T22:24:02.057Z,23.10
2023-05-19T22:26:29.846Z,23.00
2023-05-19T22:28:57.674Z,22.47
2023-05-19T22:31:26.715Z,23.41
2023-05-19T22:33:54.605Z,23.34
2023-05-19T22:36:22.313Z,20.95
2023-05-19T22:38:50.025Z,22.51
2023-05-19T22:41:17.690Z,23.05
2023-05-19T22:43:45.339Z,22.98
2023-05-19T22:46:13.296Z,23.45
2023-05-19T22:48:42.264Z,22.53
2023-05-19T22:51:09.885Z,20.92
2023-05-19T22:53:37.548Z,21.57
2023-05-19T22:56:05.468Z,22.54
2023-05-19T22:58:33.172Z,21.97
2023-05-19T23:01:01.085Z,21.48
2023-05-19T23:03:28.755Z,20.86
2023-05-19T23:05:57.845Z,22.17
2023-05-19T23:08:25.477Z,23.16
2023-05-19T23:10:53.147Z,22.86
2023-05-19T23:13:20.806Z,22.79
2023-05-19T23:15:49.673Z,20.86
2023-05-19T23:18:17.320Z,21.88
2023-05-19T23:20:44.976Z,21.67
2023-05-19T23:23:13.963Z,22.76
2023-05-19T23:25:41.658Z,22.55
2023-05-19T23:28:10.406Z,23.40
2023-05-19T23:30:38.359Z,23.01
2023-05-19T23:33:06.080Z,22.52
2023-05-19T23:35:34.012Z,23.06
2023-05-19T23:38:01.820Z,21.26
2023-05-19T23:40:30.901Z,21.66
2023-05-19T23:42:58.685Z,21.70
2023-05-19T23:45:26.391Z,20.75
2023-05-19T23:47:54.088Z,20.39
2023-05-19T23:50:22.200Z,21.50
2023-05-19T23:52:49.821Z,20.67
2023-05-19T23:55:18.824Z,21.76
2023-05-19T23:57:47.834Z,21.72
